Time;durP1;ratioP1;P1;durP2;ratioP2;P2;SDS_P1;SDS_P2;PMS_P1;PMS_P2;Temp;Humidity;BMP_temperature;BMP_pressure;BME280_temperature;BME280_humidity;BME280_pressure;Samples;Min_cycle;Max_cycle;Signal;HPM_P1;HPM_P2
2023/04/03 00:01:29;;;;;;;0.60;0.50;;;13.10;61.40;;;;;;5990069;29;20038;-70
2023/04/03 00:04:30;;;;;;;0.95;0.60;;;13.20;61.40;;;;;;5975705;29;20073;-69
2023/04/03 00:07:31;;;;;;;0.60;0.40;;;13.10;61.30;;;;;;6012562;29;20034;-69
2023/04/03 00:10:32;;;;;;;0.90;0.50;;;13.20;61.40;;;;;;5982009;29;20058;-69
2023/04/03 00:13:33;;;;;;;1.38;0.77;;;13.20;61.40;;;;;;5983466;29;20038;-69
2023/04/03 00:16:34;;;;;;;0.77;0.40;;;13.20;61.20;;;;;;5983210;29;20117;-70
2023/04/03 00:19:35;;;;;;;0.85;0.50;;;13.20;61.10;;;;;;5996317;29;20042;-69
2023/04/03 00:22:36;;;;;;;0.63;0.50;;;13.30;61.20;;;;;;5981239;29;20118;-69
2023/04/03 00:25:37;;;;;;;0.52;0.20;;;13.30;61.00;;;;;;5982783;29;20210;-69
2023/04/03 00:28:38;;;;;;;0.50;0.40;;;13.30;60.80;;;;;;5982739;29;20030;-70
2023/04/03 00:31:39;;;;;;;0.40;0.40;;;13.30;60.80;;;;;;5982234;29;20476;-73
2023/04/03 00:34:39;;;;;;;0.57;0.30;;;13.40;60.70;;;;;;5983333;29;20178;-70
2023/04/03 00:37:40;;;;;;;1.02;0.40;;;13.40;60.40;;;;;;6016474;29;20034;-70
2023/04/03 00:40:45;;;;;;;1.40;0.50;;;13.40;60.30;;;;;;6004050;29;20037;-69
2023/04/03 00:43:46;;;;;;;1.27;0.80;;;13.40;60.20;;;;;;6004806;29;20100;-70
2023/04/03 00:46:47;;;;;;;0.40;0.40;;;13.50;60.30;;;;;;6011958;29;20057;-69
2023/04/03 00:49:50;;;;;;;0.60;0.60;;;13.40;60.20;;;;;;5982794;29;20030;-69
2023/04/03 00:52:51;;;;;;;1.27;0.43;;;13.40;60.20;;;;;;6011909;29;20038;-69
2023/04/03 00:55:55;;;;;;;1.05;0.40;;;13.40;60.30;;;;;;5996078;29;20053;-70
2023/04/03 00:59:11;;;;;;;0.60;0.50;;;13.40;60.40;;;;;;5981793;29;20041;-69
2023/04/03 01:02:12;;;;;;;0.43;0.40;;;13.30;60.50;;;;;;5959533;29;20073;-69
2023/04/03 01:05:16;;;;;;;0.30;0.30;;;13.30;60.80;;;;;;5961370;29;20568;-71
2023/04/03 01:08:18;;;;;;;1.00;0.52;;;13.30;60.80;;;;;;5945823;29;20045;-68
2023/04/03 01:11:20;;;;;;;5.15;0.57;;;13.30;60.90;;;;;;6000333;29;20112;-68
2023/04/03 01:14:22;;;;;;;4.65;0.70;;;13.30;60.90;;;;;;6003296;29;20034;-70
2023/04/03 01:17:43;;;;;;;0.43;0.43;;;13.30;60.80;;;;;;6004339;29;20030;-69
2023/04/03 01:20:50;;;;;;;0.80;0.43;;;13.40;60.80;;;;;;6010798;29;20045;-69
2023/04/03 01:24:09;;;;;;;0.68;0.63;;;13.40;60.70;;;;;;5980799;29;20035;-69
2023/04/03 01:27:11;;;;;;;0.55;0.43;;;13.40;60.70;;;;;;5980761;29;20521;-70
2023/04/03 01:30:16;;;;;;;0.60;0.38;;;13.40;60.70;;;;;;5989963;29;20404;-71
2023/04/03 01:33:17;;;;;;;0.73;0.57;;;13.30;60.80;;;;;;6033640;29;20358;-70
2023/04/03 01:36:27;;;;;;;0.40;0.40;;;13.40;60.80;;;;;;5983085;29;20031;-71
2023/04/03 01:39:28;;;;;;;0.50;0.40;;;13.30;60.90;;;;;;5998255;29;20072;-70
2023/04/03 01:42:30;;;;;;;0.93;0.60;;;13.30;60.90;;;;;;6033215;29;20071;-70
2023/04/03 01:45:30;;;;;;;0.40;0.40;;;13.30;60.80;;;;;;5990476;29;20531;-70
2023/04/03 01:48:31;;;;;;;0.60;0.60;;;13.30;60.80;;;;;;5994542;29;20062;-70
2023/04/03 01:51:33;;;;;;;0.47;0.45;;;13.30;60.70;;;;;;5980019;29;20057;-68
2023/04/03 01:54:34;;;;;;;5.55;0.52;;;13.50;60.70;;;;;;6010188;29;20031;-69
2023/04/03 01:57:35;;;;;;;0.70;0.68;;;13.30;60.60;;;;;;5981017;29;20033;-70
2023/04/03 02:00:36;;;;;;;0.73;0.73;;;13.40;60.50;;;;;;5995530;29;20056;-70
2023/04/03 02:03:38;;;;;;;1.17;0.90;;;13.30;60.30;;;;;;6010992;29;20041;-69
2023/04/03 02:06:39;;;;;;;1.02;0.60;;;13.30;60.20;;;;;;5981057;29;20129;-69
2023/04/03 02:09:40;;;;;;;1.65;0.90;;;13.30;60.30;;;;;;6010881;29;20061;-69
2023/04/03 02:12:41;;;;;;;0.63;0.50;;;13.30;60.20;;;;;;6000275;29;20026;-69
2023/04/03 02:15:42;;;;;;;1.13;0.60;;;13.30;60.30;;;;;;6007329;29;20052;-69
2023/04/03 02:18:43;;;;;;;1.38;0.70;;;13.40;60.60;;;;;;5986862;29;20444;-71
2023/04/03 02:21:44;;;;;;;1.17;0.88;;;13.40;60.20;;;;;;6014963;29;20056;-70
2023/04/03 02:24:45;;;;;;;1.10;0.80;;;13.40;60.20;;;;;;5983733;29;20049;-69
2023/04/03 02:27:46;;;;;;;1.10;0.70;;;13.30;60.30;;;;;;5983550;29;20038;-70
2023/04/03 02:30:46;;;;;;;2.60;0.80;;;13.40;60.40;;;;;;6013930;29;20049;-71
2023/04/03 02:33:47;;;;;;;1.33;0.82;;;13.40;60.30;;;;;;5985028;29;20124;-70
2023/04/03 02:36:50;;;;;;;1.02;0.75;;;13.30;60.30;;;;;;6013780;29;20035;-70
2023/04/03 02:39:52;;;;;;;0.93;0.80;;;13.30;60.30;;;;;;6004604;29;20479;-70
2023/04/03 02:42:53;;;;;;;0.63;0.60;;;13.30;60.30;;;;;;6006017;29;20042;-69
2023/04/03 02:45:56;;;;;;;0.73;0.65;;;13.30;60.40;;;;;;5989318;29;20038;-70
2023/04/03 02:48:57;;;;;;;2.58;0.90;;;13.30;60.60;;;;;;5984679;29;20409;-70
2023/04/03 02:51:58;;;;;;;1.27;0.73;;;13.20;60.70;;;;;;6010378;29;20088;-70
2023/04/03 02:54:59;;;;;;;0.82;0.63;;;13.20;61.00;;;;;;5991662;29;20366;-69
2023/04/03 02:58:00;;;;;;;4.35;0.90;;;13.10;61.10;;;;;;5991030;29;20426;-70
2023/04/03 03:01:01;;;;;;;0.85;0.63;;;13.10;61.30;;;;;;6012664;29;20041;-69
2023/04/03 03:04:02;;;;;;;1.20;0.90;;;13.10;61.40;;;;;;5982858;29;20106;-69
2023/04/03 03:07:03;;;;;;;0.93;0.70;;;13.00;61.60;;;;;;5983910;29;20062;-69
2023/04/03 03:10:04;;;;;;;0.77;0.50;;;12.90;61.60;;;;;;6013328;29;20038;-69
2023/04/03 03:13:05;;;;;;;0.50;0.50;;;13.00;61.80;;;;;;6028342;29;20030;-69
2023/04/03 03:16:06;;;;;;;2.67;0.57;;;13.00;61.90;;;;;;5984248;29;20057;-69
2023/04/03 03:19:07;;;;;;;0.95;0.60;;;12.90;61.80;;;;;;6013024;29;20166;-70
2023/04/03 03:22:08;;;;;;;0.60;0.50;;;12.90;61.90;;;;;;5982415;29;20472;-70
2023/04/03 03:25:09;;;;;;;3.22;1.13;;;12.90;61.70;;;;;;6011880;29;20488;-70
2023/04/03 03:28:11;;;;;;;1.67;0.77;;;13.00;61.70;;;;;;6013117;29;20042;-69
2023/04/03 03:31:12;;;;;;;1.00;0.80;;;13.00;61.60;;;;;;6013112;29;20026;-70
2023/04/03 03:34:14;;;;;;;1.23;0.70;;;13.00;61.40;;;;;;6013285;29;20108;-69
2023/04/03 03:37:15;;;;;;;1.00;0.80;;;13.00;61.20;;;;;;5999564;29;20038;-70
2023/04/03 03:40:17;;;;;;;1.02;0.82;;;13.10;61.20;;;;;;6006742;29;20381;-70
2023/04/03 03:43:18;;;;;;;1.38;1.00;;;13.10;61.00;;;;;;6037532;29;20064;-70
2023/04/03 03:46:21;;;;;;;1.48;1.00;;;13.10;60.80;;;;;;6005298;29;20339;-70
2023/04/03 03:49:22;;;;;;;1.30;0.98;;;13.10;60.80;;;;;;5990925;29;20034;-70
2023/04/03 03:52:23;;;;;;;1.00;1.00;;;13.10;60.80;;;;;;5981864;29;20167;-70
2023/04/03 03:55:24;;;;;;;1.17;0.90;;;13.10;60.70;;;;;;6012529;29;20496;-70
2023/04/03 03:58:28;;;;;;;1.20;1.05;;;13.10;60.60;;;;;;6012412;29;20037;-70
2023/04/03 04:01:29;;;;;;;2.42;1.15;;;13.10;60.70;;;;;;5983304;29;20034;-70
2023/04/03 04:04:30;;;;;;;1.45;1.10;;;13.10;60.70;;;;;;5982496;29;20338;-71
2023/04/03 04:07:31;;;;;;;1.45;0.90;;;13.00;60.70;;;;;;6015209;29;20038;-70
2023/04/03 04:10:33;;;;;;;3.83;1.20;;;13.00;60.70;;;;;;6017657;29;20030;-70
2023/04/03 04:13:35;;;;;;;3.15;1.40;;;13.10;60.70;;;;;;6024936;29;20380;-70
2023/04/03 04:16:36;;;;;;;1.88;1.40;;;13.10;60.60;;;;;;5997499;29;20050;-69
2023/04/03 04:19:43;;;;;;;1.98;1.63;;;13.10;60.60;;;;;;5981538;29;20056;-69
2023/04/03 04:22:44;;;;;;;2.78;1.70;;;13.10;60.60;;;;;;6012546;29;20035;-70
2023/04/03 04:25:49;;;;;;;2.00;1.40;;;13.10;60.50;;;;;;6012438;29;20152;-70
2023/04/03 04:28:51;;;;;;;1.92;1.50;;;13.10;60.40;;;;;;6012041;29;20487;-70
2023/04/03 04:31:53;;;;;;;3.85;1.67;;;13.10;60.50;;;;;;6012182;29;20030;-69
2023/04/03 04:34:56;;;;;;;2.33;1.65;;;13.10;60.50;;;;;;6012074;29;20034;-70
2023/04/03 04:37:57;;;;;;;3.72;2.08;;;13.00;60.50;;;;;;6018660;29;20082;-70
2023/04/03 04:40:58;;;;;;;4.22;1.85;;;13.00;60.70;;;;;;6035148;29;20046;-70
2023/04/03 04:43:59;;;;;;;3.60;2.08;;;13.00;60.80;;;;;;6032352;29;20125;-70
2023/04/03 04:47:01;;;;;;;4.30;2.40;;;13.00;61.00;;;;;;6010968;29;20035;-69
2023/04/03 04:50:02;;;;;;;3.83;1.88;;;12.90;61.00;;;;;;6011188;29;20035;-70
2023/04/03 04:53:04;;;;;;;4.30;2.13;;;12.90;61.00;;;;;;5980985;29;20442;-69
2023/04/03 04:56:05;;;;;;;3.78;1.75;;;13.00;61.20;;;;;;6011292;29;20038;-70
2023/04/03 04:59:08;;;;;;;2.38;1.75;;;13.00;61.10;;;;;;5995083;29;20095;-69
2023/04/03 05:02:09;;;;;;;5.22;2.05;;;13.00;61.00;;;;;;6011577;29;20041;-71
2023/04/03 05:05:10;;;;;;;3.38;1.90;;;13.00;61.00;;;;;;6011577;29;20030;-70
2023/04/03 05:08:12;;;;;;;2.13;1.70;;;13.00;61.10;;;;;;6011477;29;20130;-69
2023/04/03 05:11:15;;;;;;;3.22;2.00;;;13.00;61.20;;;;;;5989094;29;20474;-69
2023/04/03 05:14:18;;;;;;;3.22;1.77;;;13.00;61.20;;;;;;6018276;29;20050;-69
2023/04/03 05:17:19;;;;;;;2.63;1.65;;;13.00;61.20;;;;;;6010937;29;20046;-71
2023/04/03 05:20:25;;;;;;;2.72;1.70;;;13.00;61.10;;;;;;6011143;29;20034;-70
2023/04/03 05:23:26;;;;;;;2.65;1.83;;;13.10;61.00;;;;;;6011015;29;20031;-69
2023/04/03 05:26:29;;;;;;;3.20;1.90;;;13.10;60.90;;;;;;5995234;29;20042;-70
2023/04/03 05:29:30;;;;;;;1.90;1.55;;;13.10;60.90;;;;;;5981812;29;20456;-69
2023/04/03 05:32:33;;;;;;;3.42;2.00;;;13.10;60.80;;;;;;6010894;29;20052;-70
2023/04/03 05:35:46;;;;;;;2.97;2.03;;;13.10;60.70;;;;;;6010428;29;20743;-71
2023/04/03 05:38:53;;;;;;;3.78;1.92;;;13.10;60.60;;;;;;6023590;29;20436;-69
2023/04/03 05:41:54;;;;;;;2.80;1.60;;;13.10;60.50;;;;;;5990401;29;20057;-69
2023/04/03 05:44:55;;;;;;;2.30;1.60;;;13.10;60.40;;;;;;5972084;29;20485;-69
2023/04/03 05:47:56;;;;;;;1.80;1.48;;;13.20;60.30;;;;;;5986689;29;20050;-69
2023/04/03 05:50:58;;;;;;;2.92;2.10;;;13.20;60.10;;;;;;5958274;29;20086;-70
2023/04/03 05:54:22;;;;;;;3.13;2.28;;;13.20;60.00;;;;;;5987413;29;20203;-68
2023/04/03 05:57:24;;;;;;;3.20;1.90;;;13.20;60.00;;;;;;5956950;29;20080;-69
2023/04/03 06:00:25;;;;;;;3.00;2.00;;;13.30;60.00;;;;;;5972147;29;20038;-69
2023/04/03 06:03:34;;;;;;;3.75;2.10;;;13.30;59.90;;;;;;5943396;29;20039;-70
2023/04/03 06:06:54;;;;;;;3.85;2.50;;;13.30;59.90;;;;;;5987632;29;20046;-70
2023/04/03 06:09:57;;;;;;;3.67;2.40;;;13.40;60.00;;;;;;5972082;29;20031;-69
2023/04/03 06:12:58;;;;;;;15.85;2.13;;;13.40;59.90;;;;;;5994756;29;20050;-70
2023/04/03 06:15:59;;;;;;;3.17;2.13;;;13.50;59.80;;;;;;5981579;29;20026;-68
2023/04/03 06:19:00;;;;;;;2.75;1.98;;;13.50;59.80;;;;;;5979690;29;20042;-69
2023/04/03 06:22:02;;;;;;;3.22;1.85;;;13.60;59.70;;;;;;5980086;29;20034;-70
2023/04/03 06:25:06;;;;;;;2.30;1.75;;;13.60;59.50;;;;;;5979632;29;20204;-70
2023/04/03 06:28:09;;;;;;;1.30;1.13;;;13.70;59.50;;;;;;5979622;29;20034;-69
2023/04/03 06:31:10;;;;;;;2.33;1.63;;;13.70;59.40;;;;;;5979843;29;20037;-70
2023/04/03 06:34:12;;;;;;;2.47;1.65;;;13.70;59.40;;;;;;5981227;29;20109;-70
2023/04/03 06:37:19;;;;;;;1.65;1.20;;;13.70;59.40;;;;;;5980521;29;20022;-70
2023/04/03 06:40:24;;;;;;;2.58;1.77;;;13.60;59.40;;;;;;6003937;29;20044;-69
2023/04/03 06:43:24;;;;;;;1.20;1.10;;;13.70;59.40;;;;;;6003917;29;20050;-70
2023/04/03 06:46:26;;;;;;;1.35;0.80;;;13.70;59.30;;;;;;5974065;29;20038;-71
2023/04/03 06:49:28;;;;;;;1.92;0.73;;;13.80;59.20;;;;;;5971340;29;20035;-70
2023/04/03 06:52:29;;;;;;;1.05;0.70;;;13.80;58.90;;;;;;5958234;29;20074;-70
2023/04/03 06:55:31;;;;;;;1.20;0.98;;;13.80;58.80;;;;;;5956216;29;20100;-70
2023/04/03 06:58:32;;;;;;;1.45;1.35;;;13.90;58.70;;;;;;5971794;29;20050;-70
2023/04/03 07:01:33;;;;;;;0.80;0.80;;;13.90;58.60;;;;;;5975703;29;20043;-70
2023/04/03 07:04:34;;;;;;;0.93;0.80;;;14.00;58.40;;;;;;5991651;29;20159;-70
2023/04/03 07:07:35;;;;;;;1.13;0.90;;;14.10;58.30;;;;;;5986142;29;20034;-68
2023/04/03 07:10:38;;;;;;;1.08;0.90;;;14.20;58.00;;;;;;5988409;29;20057;-70
2023/04/03 07:13:39;;;;;;;2.05;0.85;;;14.20;57.80;;;;;;5996864;29;20094;-68
2023/04/03 07:16:40;;;;;;;0.70;0.70;;;14.30;57.60;;;;;;5984393;29;20067;-70
2023/04/03 07:19:41;;;;;;;0.60;0.57;;;14.40;57.60;;;;;;5982255;29;20042;-69
2023/04/03 07:22:42;;;;;;;0.82;0.60;;;14.40;57.40;;;;;;5983987;29;20069;-69
2023/04/03 07:25:47;;;;;;;0.60;0.60;;;14.50;57.20;;;;;;5982487;29;20358;-71
2023/04/03 07:28:49;;;;;;;1.20;0.88;;;14.60;57.10;;;;;;5982594;29;20042;-70
2023/04/03 07:31:50;;;;;;;1.80;1.10;;;14.60;57.00;;;;;;6012462;29;20065;-69
2023/04/03 07:34:51;;;;;;;0.73;0.73;;;14.60;56.80;;;;;;5983263;29;20415;-70
2023/04/03 07:37:53;;;;;;;1.15;0.80;;;14.60;56.60;;;;;;6018431;29;20276;-70
2023/04/03 07:40:54;;;;;;;11.15;1.13;;;14.60;56.40;;;;;;6004557;29;20467;-69
2023/04/03 07:43:56;;;;;;;0.70;0.65;;;14.60;56.50;;;;;;6004104;29;20061;-70
2023/04/03 07:46:57;;;;;;;1.33;0.98;;;14.60;56.50;;;;;;5982273;29;20034;-69
2023/04/03 07:49:58;;;;;;;1.13;0.95;;;14.70;56.40;;;;;;6013116;29;20505;-70
2023/04/03 07:52:59;;;;;;;1.08;0.98;;;14.70;56.30;;;;;;5986886;29;20140;-69
2023/04/03 07:56:02;;;;;;;3.50;1.10;;;14.70;56.20;;;;;;5990903;29;20200;-69
2023/04/03 07:59:03;;;;;;;7.55;1.50;;;14.70;56.10;;;;;;6027478;29;20034;-70
2023/04/03 08:02:04;;;;;;;2.72;1.77;;;14.70;56.10;;;;;;5990952;29;20034;-72
2023/04/03 08:05:06;;;;;;;3.05;1.60;;;14.70;56.10;;;;;;5984710;29;20022;-70
2023/04/03 08:08:08;;;;;;;2.30;1.60;;;14.80;56.20;;;;;;5983941;29;20046;-69
2023/04/03 08:11:10;;;;;;;4.78;1.80;;;14.80;56.10;;;;;;5990687;29;20487;-69
2023/04/03 08:14:16;;;;;;;2.38;1.58;;;14.80;56.10;;;;;;5991509;29;20036;-68
2023/04/03 08:17:17;;;;;;;4.25;2.08;;;14.80;56.00;;;;;;5982109;29;20445;-69
2023/04/03 08:20:18;;;;;;;1.80;1.23;;;14.90;56.00;;;;;;5982948;29;20129;-69
2023/04/03 08:23:19;;;;;;;2.33;1.50;;;14.90;56.00;;;;;;5981636;29;20050;-69
2023/04/03 08:26:21;;;;;;;2.45;1.70;;;14.90;56.00;;;;;;5983135;29;20027;-70
2023/04/03 08:29:23;;;;;;;4.05;1.60;;;15.00;55.80;;;;;;5980919;29;20038;-68
2023/04/03 08:32:24;;;;;;;2.85;1.67;;;15.00;55.70;;;;;;5982701;29;20405;-69
2023/04/03 08:35:25;;;;;;;1.80;1.63;;;15.10;55.60;;;;;;6011372;29;20030;-70
2023/04/03 08:38:26;;;;;;;2.75;1.90;;;15.20;55.50;;;;;;6021337;29;20037;-71
2023/04/03 08:41:35;;;;;;;2.03;1.70;;;15.20;55.40;;;;;;6003224;29;20042;-71
2023/04/03 08:44:57;;;;;;;2.90;1.75;;;15.20;55.30;;;;;;5997524;29;20433;-69
2023/04/03 08:48:03;;;;;;;2.50;1.80;;;15.20;55.30;;;;;;5995912;29;20345;-69
2023/04/03 08:51:14;;;;;;;1.90;1.50;;;15.30;55.30;;;;;;6011718;29;20086;-70
2023/04/03 08:54:52;;;;;;;2.28;1.60;;;15.40;55.30;;;;;;5980914;29;20022;-70
2023/04/03 08:58:04;;;;;;;2.83;1.80;;;15.40;55.10;;;;;;5982357;29;20030;-69
2023/04/03 09:01:22;;;;;;;2.90;2.17;;;15.40;55.00;;;;;;5980909;29;20476;-68
2023/04/03 09:04:26;;;;;;;3.67;2.30;;;15.40;55.00;;;;;;5981950;29;20037;-69
2023/04/03 09:07:53;;;;;;;2.47;2.13;;;15.40;55.10;;;;;;6010981;29;20054;-69
2023/04/03 09:11:14;;;;;;;3.50;2.17;;;15.50;55.00;;;;;;6015913;29;20030;-70
2023/04/03 09:14:21;;;;;;;5.30;2.55;;;15.60;54.80;;;;;;5989315;29;20034;-70
2023/04/03 09:17:43;;;;;;;3.13;2.20;;;15.60;54.50;;;;;;6011442;29;20111;-70
2023/04/03 09:20:50;;;;;;;2.47;1.95;;;15.70;54.50;;;;;;6010571;29;20026;-70
2023/04/03 09:23:59;;;;;;;4.00;2.23;;;15.70;54.30;;;;;;5981097;29;20464;-69
2023/04/03 09:27:05;;;;;;;3.53;1.88;;;15.60;54.20;;;;;;5981471;29;20042;-70
2023/04/03 09:30:14;;;;;;;2.85;1.85;;;15.80;54.20;;;;;;5995618;29;20153;-70
2023/04/03 09:33:16;;;;;;;2.30;1.75;;;15.80;53.90;;;;;;5982379;29;20041;-69
2023/04/03 09:36:37;;;;;;;3.38;1.88;;;15.80;53.80;;;;;;6010487;29;20091;-70
2023/04/03 09:39:53;;;;;;;3.53;2.00;;;15.80;53.60;;;;;;5999493;29;20046;-70
2023/04/03 09:43:01;;;;;;;2.10;1.60;;;15.80;53.70;;;;;;6004426;29;20033;-70
2023/04/03 09:46:30;;;;;;;2.88;2.00;;;15.70;53.60;;;;;;5978313;29;20114;-69
2023/04/03 09:49:31;;;;;;;3.42;1.80;;;15.60;53.90;;;;;;5958778;29;20035;-69
2023/04/03 09:52:31;;;;;;;3.30;1.90;;;15.50;54.10;;;;;;5958730;29;20118;-70
2023/04/03 09:55:41;;;;;;;5.88;2.10;;;15.40;54.40;;;;;;5961931;29;20045;-70
2023/04/03 09:59:03;;;;;;;5.97;1.70;;;15.40;54.50;;;;;;5981291;29;20049;-70
2023/04/03 10:02:25;;;;;;;2.72;1.75;;;15.40;55.10;;;;;;5982122;29;20057;-69
2023/04/03 10:05:34;;;;;;;2.70;1.75;;;15.30;54.60;;;;;;5981875;29;20146;-70
2023/04/03 10:08:35;;;;;;;5.13;1.98;;;15.40;54.60;;;;;;5981549;29;20042;-70
2023/04/03 10:11:36;;;;;;;3.25;1.70;;;15.40;54.50;;;;;;6007985;29;20484;-68
2023/04/03 10:14:41;;;;;;;2.85;1.52;;;15.40;54.40;;;;;;6006172;29;20129;-70
2023/04/03 10:17:51;;;;;;;2.10;1.80;;;15.50;54.40;;;;;;6003964;29;20134;-69
2023/04/03 10:20:55;;;;;;;3.03;1.80;;;15.50;54.20;;;;;;6002339;29;20389;-70
2023/04/03 10:24:26;;;;;;;2.65;1.65;;;15.40;54.20;;;;;;5982778;29;20429;-70
2023/04/03 10:27:40;;;;;;;2.78;2.17;;;15.30;54.30;;;;;;5980799;29;20041;-70
2023/04/03 10:30:56;;;;;;;2.38;1.40;;;15.40;54.30;;;;;;5980527;29;20038;-69
2023/04/03 10:34:12;;;;;;;2.20;1.65;;;15.40;54.20;;;;;;6010121;29;20681;-69
2023/04/03 10:37:48;;;;;;;2.60;1.80;;;15.40;54.20;;;;;;5984268;29;20069;-70
2023/04/03 10:41:19;;;;;;;2.38;1.60;;;15.40;54.10;;;;;;6006069;29;20065;-70
2023/04/03 10:44:45;;;;;;;2.20;1.45;;;15.40;54.10;;;;;;6003003;29;20036;-70
2023/04/03 10:48:26;;;;;;;2.10;1.27;;;15.40;54.10;;;;;;6014505;29;20042;-70
2023/04/03 10:51:47;;;;;;;2.42;1.80;;;15.30;54.10;;;;;;5984729;29;20364;-70
2023/04/03 10:55:15;;;;;;;6.22;1.60;;;15.30;54.30;;;;;;6014473;29;20104;-70
2023/04/03 10:58:29;;;;;;;1.88;1.20;;;15.30;54.30;;;;;;6014083;29;20126;-69
2023/04/03 11:01:38;;;;;;;2.22;1.33;;;15.40;54.30;;;;;;5983725;29;20117;-70
2023/04/03 11:04:43;;;;;;;1.20;1.10;;;15.50;53.90;;;;;;6014011;29;20445;-70
2023/04/03 11:07:49;;;;;;;1.67;1.35;;;15.50;53.40;;;;;;6013661;29;20034;-69
2023/04/03 11:10:51;;;;;;;3.85;1.35;;;15.60;53.40;;;;;;6018549;29;20073;-70
2023/04/03 11:14:17;;;;;;;13.73;2.83;;;15.60;53.20;;;;;;5993632;29;20058;-70
2023/04/03 11:17:18;;;;;;;1.27;0.98;;;15.60;53.00;;;;;;5983253;29;20161;-70
2023/04/03 11:20:20;;;;;;;1.85;1.17;;;15.80;52.60;;;;;;6003702;29;20407;-70
2023/04/03 11:23:31;;;;;;;3.70;1.67;;;16.00;52.80;;;;;;6005487;29;20030;-70
2023/04/03 11:26:38;;;;;;;2.58;1.02;;;16.20;51.70;;;;;;6007071;29;20540;-69
2023/04/03 11:29:42;;;;;;;2.85;1.33;;;16.40;51.40;;;;;;6006218;29;20136;-70
2023/04/03 11:33:21;;;;;;;1.08;0.90;;;16.60;50.50;;;;;;6006968;29;20037;-70
2023/04/03 11:36:31;;;;;;;4.07;1.10;;;16.60;50.40;;;;;;6006818;29;20074;-70
2023/04/03 11:39:35;;;;;;;5.85;1.40;;;16.70;50.20;;;;;;6035836;29;20042;-70
2023/04/03 11:42:39;;;;;;;1.42;0.93;;;16.70;50.00;;;;;;6006828;29;20448;-68
2023/04/03 11:45:54;;;;;;;1.00;0.90;;;16.60;49.90;;;;;;5981951;29;20143;-69
2023/04/03 11:48:56;;;;;;;1.30;0.98;;;16.50;50.20;;;;;;5999311;29;20042;-70
2023/04/03 11:51:57;;;;;;;1.35;0.98;;;16.40;50.10;;;;;;6012406;29;20038;-70
2023/04/03 11:54:57;;;;;;;3.53;0.98;;;16.30;50.10;;;;;;6012610;29;20067;-69
2023/04/03 11:57:58;;;;;;;1.35;1.10;;;16.20;50.20;;;;;;5983053;29;20042;-69
2023/04/03 12:01:11;;;;;;;2.10;1.17;;;16.20;50.30;;;;;;6012226;29;20111;-70
2023/04/03 12:04:15;;;;;;;1.85;1.10;;;16.20;50.30;;;;;;5986695;29;20086;-70
2023/04/03 12:07:19;;;;;;;3.08;0.77;;;16.30;50.00;;;;;;6026177;29;20030;-70
2023/04/03 12:10:20;;;;;;;1.50;1.05;;;16.50;49.90;;;;;;6033209;29;20136;-69
2023/04/03 12:13:21;;;;;;;2.20;1.10;;;16.70;49.40;;;;;;6007356;29;20031;-70
2023/04/03 12:16:22;;;;;;;4.47;1.30;;;17.00;48.70;;;;;;6005153;29;20072;-70
2023/04/03 12:19:44;;;;;;;1.25;1.00;;;17.70;47.70;;;;;;6005823;29;20033;-69
2023/04/03 12:23:23;;;;;;;2.20;1.20;;;18.80;45.60;;;;;;6004219;29;20033;-70
2023/04/03 12:26:34;;;;;;;1.63;1.08;;;19.60;43.80;;;;;;6034359;29;20052;-70
2023/04/03 12:30:00;;;;;;;1.33;0.98;;;20.00;42.70;;;;;;6005192;29;20087;-69
2023/04/03 12:33:13;;;;;;;3.85;1.00;;;19.70;42.40;;;;;;6004340;29;20030;-70
2023/04/03 12:36:26;;;;;;;4.38;1.05;;;19.20;42.90;;;;;;6004763;29;20479;-68
2023/04/03 12:39:36;;;;;;;2.15;1.15;;;18.70;43.60;;;;;;6005623;29;20674;-70
2023/04/03 12:43:09;;;;;;;1.30;0.98;;;18.40;44.10;;;;;;6006014;29;20041;-69
2023/04/03 12:46:20;;;;;;;1.30;1.00;;;18.50;44.40;;;;;;6004192;29;20412;-69
2023/04/03 12:49:41;;;;;;;2.10;1.00;;;18.40;44.00;;;;;;6004984;29;20113;-68
2023/04/03 12:52:47;;;;;;;1.73;1.08;;;18.30;44.60;;;;;;6005897;29;20034;-70
2023/04/03 12:55:57;;;;;;;1.95;1.40;;;18.20;44.80;;;;;;6005568;29;20022;-68
2023/04/03 12:59:21;;;;;;;4.82;1.77;;;18.10;45.10;;;;;;6005290;29;20030;-69
2023/04/03 13:02:29;;;;;;;2.58;1.58;;;17.80;45.50;;;;;;6005567;29;20136;-70
2023/04/03 13:05:32;;;;;;;2.67;2.05;;;17.60;46.00;;;;;;6004011;29;20038;-69
2023/04/03 13:08:33;;;;;;;4.95;2.25;;;17.40;46.70;;;;;;6003426;29;20113;-70
2023/04/03 13:11:37;;;;;;;2.88;2.05;;;17.20;47.40;;;;;;5994552;29;20094;-69
2023/04/03 13:14:40;;;;;;;2.17;1.70;;;16.90;47.80;;;;;;5983172;29;20113;-69
2023/04/03 13:17:43;;;;;;;2.85;1.85;;;16.70;48.20;;;;;;5981880;29;20042;-69
2023/04/03 13:20:48;;;;;;;4.05;2.10;;;16.60;48.60;;;;;;5983450;29;20034;-70
2023/04/03 13:23:53;;;;;;;3.80;2.25;;;16.60;48.80;;;;;;5984131;29;20030;-70
2023/04/03 13:26:54;;;;;;;4.55;2.42;;;16.60;48.90;;;;;;5981599;29;20091;-69
2023/04/03 13:29:58;;;;;;;4.60;2.60;;;16.50;48.90;;;;;;6011356;29;20102;-70
2023/04/03 13:33:02;;;;;;;3.55;2.30;;;16.40;49.10;;;;;;5982251;29;20051;-70
2023/04/03 13:36:22;;;;;;;3.08;2.03;;;16.40;49.30;;;;;;5980732;29;20192;-70
2023/04/03 13:39:30;;;;;;;3.20;1.95;;;16.30;49.40;;;;;;5998194;29;20026;-70
2023/04/03 13:42:32;;;;;;;;;;;16.30;49.50;;;;;;6018968;29;20406;-69
2023/04/03 13:45:34;;;;;;;3.10;2.28;;;16.30;49.50;;;;;;5990804;29;19989;-69
2023/04/03 13:48:47;;;;;;;2.33;1.80;;;16.40;49.40;;;;;;5981940;29;20054;-70
2023/04/03 13:51:49;;;;;;;2.17;1.80;;;16.40;49.50;;;;;;5981928;29;20491;-70
2023/04/03 13:55:00;;;;;;;3.38;2.03;;;16.40;49.40;;;;;;6011059;29;20485;-70
2023/04/03 13:58:20;;;;;;;3.83;2.20;;;16.40;49.40;;;;;;5981573;29;20117;-70
2023/04/03 14:01:23;;;;;;;3.97;2.13;;;16.40;49.50;;;;;;6010725;29;20034;-70
2023/04/03 14:04:28;;;;;;;4.32;1.85;;;16.50;49.60;;;;;;5981674;29;20404;-69
2023/04/03 14:07:33;;;;;;;4.15;2.70;;;16.50;49.60;;;;;;5995356;29;20069;-70
2023/04/03 14:10:34;;;;;;;3.33;2.13;;;16.50;49.60;;;;;;5987296;29;20056;-70
2023/04/03 14:13:35;;;;;;;4.63;2.50;;;16.60;49.60;;;;;;6027706;29;20373;-69
2023/04/03 14:16:40;;;;;;;3.75;2.30;;;16.50;49.40;;;;;;5986090;29;20022;-71
2023/04/03 14:19:42;;;;;;;3.08;1.98;;;16.50;49.60;;;;;;6015383;29;20113;-70
2023/04/03 14:22:43;;;;;;;5.30;2.55;;;16.50;49.60;;;;;;5986600;29;20674;-70
2023/04/03 14:25:44;;;;;;;3.33;2.25;;;16.40;49.80;;;;;;5985574;29;20471;-69
2023/04/03 14:28:48;;;;;;;3.03;2.20;;;16.30;50.00;;;;;;5985068;29;20030;-69
2023/04/03 14:31:50;;;;;;;2.50;2.08;;;16.10;50.10;;;;;;5985760;29;20537;-68
2023/04/03 14:34:52;;;;;;;4.38;2.55;;;16.00;50.20;;;;;;5985849;29;20026;-70
2023/04/03 14:37:54;;;;;;;4.07;2.40;;;16.00;50.20;;;;;;5991970;29;20034;-71
2023/04/03 14:40:55;;;;;;;6.78;2.08;;;16.00;50.30;;;;;;6038001;29;20118;-71
2023/04/03 14:43:56;;;;;;;4.85;2.75;;;16.00;50.50;;;;;;6035877;29;20034;-70
2023/04/03 14:46:57;;;;;;;4.00;2.42;;;16.20;50.40;;;;;;5985521;29;20528;-69
2023/04/03 14:50:00;;;;;;;3.40;2.28;;;16.40;50.00;;;;;;5985544;29;20049;-70
2023/04/03 14:53:01;;;;;;;5.40;2.63;;;16.50;49.70;;;;;;5985483;29;20518;-70
2023/04/03 14:56:04;;;;;;;3.08;2.50;;;16.50;49.40;;;;;;6014781;29;20117;-70
2023/04/03 14:59:10;;;;;;;2.70;2.20;;;16.60;49.20;;;;;;6014343;29;20031;-70
2023/04/03 15:02:26;;;;;;;3.70;2.55;;;16.50;49.20;;;;;;5985319;29;20059;-70
2023/04/03 15:05:27;;;;;;;3.95;2.45;;;16.50;49.20;;;;;;6006141;29;20102;-71
2023/04/03 15:08:29;;;;;;;3.72;2.58;;;16.50;49.40;;;;;;5991204;29;20451;-69
2023/04/03 15:11:30;;;;;;;7.15;2.55;;;16.60;49.30;;;;;;6006668;29;20049;-70
2023/04/03 15:14:31;;;;;;;3.75;2.15;;;16.60;49.10;;;;;;5990437;29;20417;-70
2023/04/03 15:17:31;;;;;;;5.47;2.47;;;16.60;49.20;;;;;;5983550;29;20069;-69
2023/04/03 15:20:33;;;;;;;4.63;2.25;;;16.60;49.20;;;;;;5985007;29;20044;-69
2023/04/03 15:23:34;;;;;;;5.10;2.53;;;16.60;49.00;;;;;;5983698;29;20640;-69
2023/04/03 15:26:35;;;;;;;2.78;2.17;;;16.60;49.70;;;;;;5984657;29;20147;-68
2023/04/03 15:29:36;;;;;;;3.70;2.25;;;16.50;49.20;;;;;;5984511;29;20101;-70
2023/04/03 15:32:37;;;;;;;5.65;2.40;;;16.60;49.30;;;;;;5984889;29;20090;-70
2023/04/03 15:35:38;;;;;;;5.30;2.28;;;16.60;49.20;;;;;;5983037;29;20113;-69
2023/04/03 15:38:39;;;;;;;2.97;2.08;;;16.60;49.30;;;;;;6025393;29;20372;-69
2023/04/03 15:41:40;;;;;;;3.65;1.92;;;16.70;49.20;;;;;;5994269;29;20130;-70
2023/04/03 15:44:41;;;;;;;4.78;2.30;;;16.70;49.00;;;;;;5984377;29;20062;-70
2023/04/03 15:47:42;;;;;;;3.85;1.98;;;16.60;48.90;;;;;;5984324;29;20027;-70
2023/04/03 15:50:43;;;;;;;3.15;2.05;;;16.50;49.00;;;;;;5984098;29;20038;-70
2023/04/03 15:53:44;;;;;;;4.10;2.17;;;16.40;49.60;;;;;;5984092;29;20163;-70
2023/04/03 15:56:45;;;;;;;3.92;2.20;;;16.30;49.20;;;;;;6012765;29;20113;-70
2023/04/03 15:59:46;;;;;;;3.95;2.42;;;16.20;49.90;;;;;;6012476;29;20093;-71
2023/04/03 16:02:48;;;;;;;5.93;2.00;;;16.10;49.60;;;;;;6013344;29;20061;-69
2023/04/03 16:05:49;;;;;;;3.50;2.25;;;16.00;49.80;;;;;;5998539;29;20071;-70